createdAt,value
2019-02-25T00:01:25.326Z,14.47
2019-02-25T00:03:52.377Z,17.20
2019-02-25T00:06:19.631Z,17.37
2019-02-25T00:08:46.852Z,15.87
2019-02-25T00:11:13.962Z,14.40
2019-02-25T00:13:40.999Z,16.50
2019-02-25T00:16:09.537Z,18.33
2019-02-25T00:18:36.716Z,17.20
2019-02-25T00:21:03.766Z,17.93
2019-02-25T00:23:30.855Z,21.07
2019-02-25T00:25:57.921Z,18.80
2019-02-25T00:28:25.082Z,18.97
2019-02-25T00:30:52.138Z,17.73
2019-02-25T00:33:19.290Z,19.87
2019-02-25T00:35:46.360Z,20.90
2019-02-25T00:38:13.478Z,13.00
2019-02-25T00:40:40.536Z,15.07
2019-02-25T00:43:07.586Z,15.80
2019-02-25T00:45:34.691Z,14.27
2019-02-25T00:48:01.807Z,13.87
2019-02-25T00:50:28.863Z,20.10
2019-02-25T00:52:55.948Z,16.83
2019-02-25T00:55:23.051Z,18.83
2019-02-25T00:57:50.147Z,17.27
2019-02-25T01:00:17.468Z,25.60
2019-02-25T01:02:44.567Z,17.10
2019-02-25T01:05:11.623Z,20.80
2019-02-25T01:07:38.975Z,17.43
2019-02-25T01:10:06.637Z,22.83
2019-02-25T01:12:33.683Z,16.90
2019-02-25T01:15:00.717Z,17.40
2019-02-25T01:17:27.807Z,25.03
2019-02-25T01:19:54.889Z,17.57
2019-02-25T01:22:23.584Z,16.30
2019-02-25T01:24:50.670Z,14.50
2019-02-25T01:27:17.717Z,18.03
2019-02-25T01:29:44.763Z,18.50
2019-02-25T01:32:11.833Z,16.90
2019-02-25T01:34:38.891Z,17.77
2019-02-25T01:37:07.778Z,16.50
2019-02-25T01:39:34.847Z,20.17
2019-02-25T01:42:01.885Z,20.23
2019-02-25T01:44:28.941Z,17.33
2019-02-25T01:46:57.123Z,15.63
2019-02-25T01:49:24.160Z,18.17
2019-02-25T01:51:51.219Z,16.03
2019-02-25T01:54:18.287Z,11.10
2019-02-25T01:56:45.363Z,14.10
2019-02-25T01:59:12.399Z,16.00
2019-02-25T02:01:39.688Z,18.97
2019-02-25T02:04:06.706Z,20.93
2019-02-25T02:06:33.739Z,20.77
2019-02-25T02:09:00.837Z,19.00
2019-02-25T02:11:27.888Z,14.97
2019-02-25T02:13:54.940Z,15.20
2019-02-25T02:16:22.017Z,27.43
2019-02-25T02:18:49.072Z,18.93
2019-02-25T02:21:16.131Z,16.97
2019-02-25T02:23:43.227Z,17.87
2019-02-25T02:26:10.299Z,17.70
2019-02-25T02:28:37.329Z,19.20
2019-02-25T02:31:16.358Z,17.03
2019-02-25T02:33:43.446Z,19.17
2019-02-25T02:36:11.710Z,17.90
2019-02-25T02:38:39.103Z,13.93
2019-02-25T02:41:06.207Z,18.23
2019-02-25T02:43:33.235Z,17.27
2019-02-25T02:47:02.001Z,15.73
2019-02-25T02:49:29.047Z,17.10
2019-02-25T02:51:56.090Z,15.90
2019-02-25T02:54:23.173Z,18.50
2019-02-25T02:56:50.304Z,17.60
2019-02-25T02:59:17.375Z,15.63
2019-02-25T03:01:44.472Z,19.27
2019-02-25T03:04:11.501Z,16.17
2019-02-25T03:06:38.559Z,20.93
2019-02-25T03:09:08.849Z,19.23
2019-02-25T03:11:36.661Z,21.20
2019-02-25T03:14:03.838Z,17.27
2019-02-25T03:16:30.899Z,17.40
2019-02-25T03:18:57.975Z,21.30
2019-02-25T03:21:25.031Z,17.93
2019-02-25T03:23:52.092Z,20.40
2019-02-25T03:26:19.223Z,13.90
2019-02-25T03:28:46.265Z,17.53
2019-02-25T03:31:13.342Z,16.63
2019-02-25T03:33:40.498Z,16.13
2019-02-25T03:36:07.632Z,16.10
2019-02-25T03:38:34.694Z,14.87
2019-02-25T03:41:01.796Z,19.30
2019-02-25T03:43:28.846Z,14.37
2019-02-25T03:45:55.871Z,15.40
2019-02-25T03:48:22.939Z,17.57
2019-02-25T03:50:50.021Z,20.37
2019-02-25T03:53:17.053Z,20.33
2019-02-25T03:55:44.125Z,14.03
2019-02-25T03:58:11.294Z,19.27
2019-02-25T04:00:38.423Z,21.77
2019-02-25T04:03:05.494Z,17.10
2019-02-25T04:05:32.526Z,19.53
2019-02-25T04:07:59.606Z,14.93
2019-02-25T04:10:26.645Z,30.57
2019-02-25T04:12:53.706Z,16.57
2019-02-25T04:15:23.779Z,13.73
2019-02-25T04:17:50.838Z,21.17
2019-02-25T04:20:17.892Z,17.57
2019-02-25T04:22:44.979Z,17.17
2019-02-25T04:25:12.035Z,15.83
2019-02-25T04:27:40.879Z,17.33
2019-02-25T04:30:10.677Z,17.10
2019-02-25T04:32:37.731Z,14.83
2019-02-25T04:35:06.034Z,19.73
2019-02-25T04:37:33.115Z,20.00
2019-02-25T04:40:00.311Z,16.67
2019-02-25T04:42:27.318Z,14.17
2019-02-25T04:44:54.519Z,13.33
2019-02-25T04:47:22.677Z,20.83
2019-02-25T04:49:49.706Z,12.67
2019-02-25T04:52:16.789Z,16.07
2019-02-25T04:54:43.935Z,13.00
2019-02-25T04:57:11.035Z,14.43
2019-02-25T04:59:38.098Z,13.73
2019-02-25T05:02:42.940Z,14.40
2019-02-25T05:05:10.459Z,17.67
2019-02-25T05:07:37.500Z,12.27
2019-02-25T05:10:05.432Z,15.93
2019-02-25T05:12:32.516Z,12.73
2019-02-25T05:14:59.557Z,11.70
2019-02-25T05:17:26.628Z,13.87
2019-02-25T05:19:53.693Z,12.03
2019-02-25T05:22:20.733Z,16.63
2019-02-25T05:24:47.810Z,15.00
2019-02-25T05:27:14.962Z,11.93
2019-02-25T05:30:18.770Z,13.33
2019-02-25T05:32:45.867Z,15.17
2019-02-25T05:35:12.921Z,15.80
2019-02-25T05:37:39.991Z,14.53
2019-02-25T05:40:10.212Z,12.40
2019-02-25T05:43:20.264Z,14.53
2019-02-25T05:45:47.495Z,13.57
2019-02-25T05:48:15.559Z,13.97
2019-02-25T05:50:42.608Z,14.10
2019-02-25T05:53:09.700Z,15.13
2019-02-25T05:55:36.873Z,19.80
2019-02-25T05:58:03.936Z,12.57
2019-02-25T06:00:31.425Z,15.93
2019-02-25T06:02:58.480Z,13.37
2019-02-25T06:05:25.520Z,14.33
2019-02-25T06:07:52.595Z,19.57
2019-02-25T06:10:19.740Z,18.17
2019-02-25T06:12:46.792Z,20.83
2019-02-25T06:15:14.428Z,15.07
2019-02-25T06:17:41.478Z,13.17
2019-02-25T06:20:09.490Z,21.87
2019-02-25T06:22:36.557Z,18.47
2019-02-25T06:25:04.432Z,15.93
2019-02-25T06:27:31.470Z,15.97
2019-02-25T06:29:58.561Z,17.63
2019-02-25T06:32:25.608Z,14.40
2019-02-25T06:34:52.701Z,14.93
2019-02-25T06:37:22.826Z,19.10
2019-02-25T06:39:49.897Z,20.20
2019-02-25T06:42:16.949Z,25.13
2019-02-25T06:44:44.019Z,16.13
2019-02-25T06:47:11.082Z,13.80
2019-02-25T06:49:38.461Z,15.73
2019-02-25T06:52:05.519Z,21.57
2019-02-25T06:54:32.598Z,22.40
2019-02-25T06:56:59.679Z,26.67
2019-02-25T06:59:35.607Z,16.10
2019-02-25T07:02:02.640Z,13.83
2019-02-25T07:04:56.402Z,17.57
2019-02-25T07:07:46.060Z,12.93
2019-02-25T07:10:32.191Z,15.57
2019-02-25T07:16:27.707Z,18.37
2019-02-25T07:19:11.421Z,12.13
2019-02-25T07:21:58.736Z,14.47
2019-02-25T07:24:32.764Z,19.50
2019-02-25T07:27:23.289Z,20.97
2019-02-25T07:30:17.557Z,18.43
2019-02-25T07:33:07.230Z,14.77
2019-02-25T07:35:56.877Z,14.27
2019-02-25T07:38:52.368Z,13.87
2019-02-25T07:41:51.091Z,20.07
2019-02-25T07:44:29.262Z,19.47
2019-02-25T07:47:19.047Z,17.67
2019-02-25T07:50:08.787Z,17.53
2019-02-25T07:52:47.633Z,14.50
2019-02-25T07:55:33.082Z,14.43
2019-02-25T07:58:26.920Z,15.90
2019-02-25T08:01:03.581Z,15.93
2019-02-25T08:03:55.246Z,12.03
2019-02-25T08:06:47.971Z,12.63
2019-02-25T08:09:33.195Z,12.00
2019-02-25T08:12:19.862Z,10.80
2019-02-25T08:15:12.665Z,12.37
2019-02-25T08:18:02.765Z,12.93
2019-02-25T08:20:48.183Z,11.43
2019-02-25T08:23:30.654Z,12.20
2019-02-25T08:26:38.693Z,9.57
2019-02-25T08:29:28.278Z,13.00
2019-02-25T08:32:21.387Z,11.60
2019-02-25T08:35:14.031Z,10.57
2019-02-25T08:37:56.154Z,13.13
2019-02-25T08:41:16.937Z,14.77
2019-02-25T08:44:03.614Z,14.90
2019-02-25T08:46:53.514Z,10.13
2019-02-25T08:49:24.352Z,18.43
2019-02-25T08:51:51.404Z,12.73
2019-02-25T08:54:18.491Z,13.83
2019-02-25T08:56:45.600Z,14.67
2019-02-25T08:59:12.748Z,11.83
2019-02-25T09:01:39.916Z,13.20
2019-02-25T09:04:06.988Z,12.83
2019-02-25T09:06:34.049Z,12.97
2019-02-25T09:09:01.130Z,15.87
2019-02-25T09:11:46.387Z,12.43
2019-02-25T09:14:13.433Z,10.93
2019-02-25T09:16:40.591Z,11.13
2019-02-25T09:20:03.000Z,9.23
2019-02-25T09:22:36.293Z,9.63
2019-02-25T09:25:03.615Z,11.77
2019-02-25T09:27:30.709Z,9.63
2019-02-25T09:29:57.776Z,8.63
2019-02-25T09:32:24.863Z,7.03
2019-02-25T09:34:51.932Z,9.87
2019-02-25T09:37:19.068Z,7.53
2019-02-25T09:39:46.116Z,10.33
2019-02-25T09:42:13.210Z,8.70
2019-02-25T09:44:40.249Z,9.80
2019-02-25T09:47:07.347Z,9.33
2019-02-25T09:49:34.455Z,9.13
2019-02-25T09:52:01.731Z,7.57
2019-02-25T09:54:28.848Z,8.47
2019-02-25T09:56:55.967Z,12.23
2019-02-25T09:59:23.088Z,7.30
2019-02-25T10:01:50.207Z,6.80
2019-02-25T10:04:17.387Z,8.30
2019-02-25T10:06:44.499Z,9.43
2019-02-25T10:09:11.713Z,9.53
2019-02-25T10:11:38.763Z,8.70
2019-02-25T10:14:05.884Z,7.13
2019-02-25T10:16:32.971Z,10.60
2019-02-25T10:19:00.063Z,9.37
2019-02-25T10:21:28.360Z,8.50
2019-02-25T10:23:55.482Z,9.47
2019-02-25T10:26:22.623Z,6.67
2019-02-25T10:28:49.691Z,8.63
2019-02-25T10:31:17.495Z,6.47
2019-02-25T10:33:44.624Z,12.03
2019-02-25T10:37:05.603Z,11.87
2019-02-25T10:39:32.663Z,7.90
2019-02-25T10:42:01.601Z,6.37
2019-02-25T10:44:29.719Z,6.20
2019-02-25T10:46:57.263Z,6.63
2019-02-25T10:49:25.096Z,16.13
2019-02-25T10:51:53.334Z,5.67
2019-02-25T10:54:21.254Z,6.17
2019-02-25T10:56:54.216Z,7.60
2019-02-25T10:59:24.485Z,8.23
2019-02-25T11:02:11.602Z,8.07
2019-02-25T11:04:39.658Z,8.10
2019-02-25T11:07:27.192Z,8.60
2019-02-25T11:10:20.332Z,6.97
2019-02-25T11:12:48.893Z,8.47
2019-02-25T11:15:16.068Z,8.23
2019-02-25T11:17:43.225Z,5.80
2019-02-25T11:21:13.535Z,5.63
2019-02-25T11:23:40.601Z,5.70
2019-02-25T11:26:09.312Z,5.00
2019-02-25T11:28:39.190Z,7.97
2019-02-25T11:31:05.590Z,5.10
2019-02-25T11:33:34.351Z,4.83
2019-02-25T11:36:01.627Z,7.23
2019-02-25T11:38:30.404Z,6.87
2019-02-25T11:40:59.833Z,4.97
2019-02-25T11:43:27.602Z,5.57
2019-02-25T11:46:35.827Z,4.83
2019-02-25T11:49:03.160Z,8.53
2019-02-25T11:51:30.325Z,4.73
2019-02-25T11:53:59.440Z,9.67
2019-02-25T11:56:26.586Z,6.43
2019-02-25T11:58:53.671Z,5.30
2019-02-25T12:01:20.807Z,6.63
2019-02-25T12:03:47.904Z,8.77
2019-02-25T12:06:14.960Z,6.70
2019-02-25T12:08:42.137Z,6.63
2019-02-25T12:11:09.251Z,10.80
2019-02-25T12:13:36.354Z,6.33
2019-02-25T12:16:03.523Z,6.77
2019-02-25T12:18:30.688Z,5.47
2019-02-25T12:20:57.839Z,11.67
2019-02-25T12:23:24.904Z,8.73
2019-02-25T12:25:51.988Z,6.57
2019-02-25T12:28:19.186Z,4.33
2019-02-25T12:30:46.303Z,3.73
2019-02-25T12:33:13.353Z,4.27
2019-02-25T12:35:40.434Z,3.83
2019-02-25T12:38:07.560Z,9.53
2019-02-25T12:40:34.605Z,4.33
2019-02-25T12:43:01.657Z,4.77
2019-02-25T12:45:29.086Z,3.00
2019-02-25T12:47:56.190Z,4.93
2019-02-25T12:50:24.360Z,3.67
2019-02-25T12:52:51.444Z,2.43
2019-02-25T12:55:18.495Z,3.87
2019-02-25T12:58:24.693Z,3.47
2019-02-25T13:00:51.802Z,5.33
2019-02-25T13:03:18.978Z,4.80
2019-02-25T13:05:46.146Z,3.73
2019-02-25T13:08:14.946Z,3.00
2019-02-25T13:10:42.014Z,4.70
2019-02-25T13:13:09.063Z,6.10
2019-02-25T13:15:36.143Z,3.63
2019-02-25T13:18:03.294Z,3.87
2019-02-25T13:20:30.351Z,4.93
2019-02-25T13:22:57.459Z,2.97
2019-02-25T13:25:25.670Z,5.43
2019-02-25T13:27:54.355Z,3.70
2019-02-25T13:30:21.853Z,8.00
2019-02-25T13:32:48.937Z,4.00
2019-02-25T13:35:15.997Z,4.67
2019-02-25T13:37:43.520Z,3.87
2019-02-25T13:40:10.704Z,3.57
2019-02-25T13:42:37.764Z,3.47
2019-02-25T13:45:05.127Z,5.83
2019-02-25T13:47:32.369Z,7.87
2019-02-25T13:49:59.521Z,5.03
2019-02-25T13:52:26.602Z,4.23
2019-02-25T13:55:19.529Z,4.50
2019-02-25T13:57:46.621Z,5.50
2019-02-25T14:00:16.132Z,3.90
2019-02-25T14:02:43.651Z,2.33
2019-02-25T14:05:10.763Z,4.53
2019-02-25T14:07:37.925Z,3.97
2019-02-25T14:10:06.770Z,3.83
2019-02-25T14:12:33.919Z,4.63
2019-02-25T14:15:01.009Z,3.23
2019-02-25T14:17:28.165Z,4.93
2019-02-25T14:19:55.416Z,2.57
2019-02-25T14:22:22.509Z,2.87
2019-02-25T14:24:49.757Z,3.13
2019-02-25T14:27:16.809Z,9.33
2019-02-25T14:29:44.641Z,14.67
2019-02-25T14:32:15.263Z,5.10
2019-02-25T14:34:44.423Z,11.80
2019-02-25T14:37:13.758Z,7.80
2019-02-25T14:39:43.142Z,7.20
2019-02-25T14:42:11.985Z,3.40
2019-02-25T14:48:15.387Z,7.80
2019-02-25T14:50:41.814Z,11.83
2019-02-25T14:53:11.577Z,6.30
2019-02-25T14:55:40.670Z,8.37
2019-02-25T14:58:09.844Z,4.37
2019-02-25T15:00:38.389Z,4.60
2019-02-25T15:03:05.475Z,8.80
2019-02-25T15:05:32.648Z,6.53
2019-02-25T15:08:00.054Z,5.37
2019-02-25T15:10:29.654Z,2.20
2019-02-25T15:12:58.659Z,4.80
2019-02-25T15:22:33.961Z,2.57
2019-02-25T15:25:01.250Z,16.77
2019-02-25T15:27:28.311Z,6.63
2019-02-25T15:29:56.579Z,7.17
2019-02-25T15:32:23.637Z,6.20
2019-02-25T15:34:51.202Z,6.67
2019-02-25T15:37:19.658Z,4.70
2019-02-25T15:39:46.760Z,5.37
2019-02-25T15:42:16.629Z,5.33
2019-02-25T15:44:44.508Z,8.47
2019-02-25T15:47:13.328Z,4.70
2019-02-25T15:49:43.745Z,6.33
2019-02-25T15:52:14.648Z,6.10
2019-02-25T15:54:41.425Z,9.60
2019-02-25T15:57:09.081Z,5.80
2019-02-25T15:59:45.040Z,4.67
2019-02-25T16:02:14.175Z,6.80
2019-02-25T16:04:42.367Z,7.17
2019-02-25T16:07:10.563Z,12.03
2019-02-25T16:09:45.229Z,9.23
2019-02-25T16:12:12.358Z,8.47
2019-02-25T16:14:39.572Z,9.83
2019-02-25T16:17:06.645Z,11.17
2019-02-25T16:19:41.305Z,11.87
2019-02-25T16:22:03.524Z,8.63
2019-02-25T16:24:31.964Z,7.57
2019-02-25T16:27:00.526Z,7.20
2019-02-25T16:29:28.031Z,8.17
2019-02-25T16:31:55.600Z,11.57
2019-02-25T16:34:23.953Z,11.00
2019-02-25T16:36:52.000Z,10.50
2019-02-25T16:39:20.123Z,11.73
2019-02-25T16:41:47.791Z,12.90
2019-02-25T16:44:15.126Z,15.20
2019-02-25T16:46:43.849Z,10.03
2019-02-25T16:49:11.469Z,12.67
2019-02-25T16:51:38.588Z,9.73
2019-02-25T16:54:11.011Z,15.83
2019-02-25T16:56:36.633Z,13.07
2019-02-25T16:59:10.615Z,14.23
2019-02-25T17:01:34.968Z,9.97
2019-02-25T17:04:01.824Z,16.57
2019-02-25T17:06:30.400Z,14.67
2019-02-25T17:08:57.981Z,16.00
2019-02-25T17:11:25.018Z,15.80
2019-02-25T17:13:53.000Z,22.37
2019-02-25T17:16:24.116Z,16.23
2019-02-25T17:18:50.269Z,21.10
2019-02-25T17:21:17.345Z,19.43
2019-02-25T17:23:44.423Z,16.10
2019-02-25T17:26:12.630Z,16.73
2019-02-25T17:28:40.689Z,15.63
2019-02-25T17:31:08.980Z,17.47
2019-02-25T17:33:37.519Z,15.70
2019-02-25T17:36:06.234Z,19.23
2019-02-25T17:38:41.120Z,23.57
2019-02-25T17:41:13.129Z,23.23
2019-02-25T17:43:42.546Z,22.30
2019-02-25T17:46:11.535Z,19.07
2019-02-25T17:48:38.505Z,24.77
2019-02-25T17:51:05.678Z,16.60
2019-02-25T17:53:32.858Z,20.53
2019-02-25T17:56:00.260Z,20.00
2019-02-25T17:58:27.332Z,21.43
2019-02-25T18:00:56.334Z,20.53
2019-02-25T18:03:24.271Z,19.97
2019-02-25T18:05:52.960Z,21.70
2019-02-25T18:08:22.806Z,18.37
2019-02-25T18:10:51.978Z,16.10
2019-02-25T18:13:19.786Z,19.07
2019-02-25T18:15:51.549Z,22.63
2019-02-25T18:18:25.528Z,23.60
2019-02-25T18:20:53.629Z,17.53
2019-02-25T18:23:21.722Z,28.87
2019-02-25T18:25:49.339Z,19.33
2019-02-25T18:28:17.849Z,21.07
2019-02-25T18:30:45.586Z,14.93
2019-02-25T18:33:13.425Z,18.23
2019-02-25T18:35:41.663Z,16.67
2019-02-25T18:38:09.899Z,15.90
2019-02-25T18:40:38.769Z,17.07
2019-02-25T18:43:07.110Z,23.47
2019-02-25T18:45:38.460Z,18.37
2019-02-25T18:48:07.898Z,14.67
2019-02-25T18:50:35.965Z,16.93
2019-02-25T18:53:03.662Z,14.83
2019-02-25T18:55:34.229Z,17.10
2019-02-25T18:58:05.628Z,17.27
2019-02-25T19:03:24.981Z,18.17
2019-02-25T19:05:57.053Z,16.70
2019-02-25T19:08:26.780Z,17.30
2019-02-25T19:11:51.230Z,20.53
2019-02-25T19:14:21.786Z,17.90
2019-02-25T19:16:48.688Z,23.40
2019-02-25T19:19:18.792Z,17.87
2019-02-25T19:21:47.865Z,20.13
2019-02-25T19:24:18.274Z,14.97
2019-02-25T19:26:46.926Z,17.13
2019-02-25T19:29:15.229Z,21.20
2019-02-25T19:31:44.056Z,22.80
2019-02-25T19:34:11.300Z,19.37
2019-02-25T19:36:41.241Z,14.73
2019-02-25T19:39:12.403Z,17.67
2019-02-25T19:41:40.549Z,18.97
2019-02-25T19:44:08.040Z,24.87
2019-02-25T19:46:45.644Z,25.30
2019-02-25T19:49:16.003Z,20.30
2019-02-25T19:52:02.172Z,26.43
2019-02-25T19:54:29.627Z,15.60
2019-02-25T19:56:58.000Z,31.93
2019-02-25T19:59:26.828Z,32.33
2019-02-25T20:01:54.503Z,21.40
2019-02-25T20:04:21.653Z,23.07
2019-02-25T20:06:49.441Z,30.20
2019-02-25T20:09:18.740Z,23.57
2019-02-25T20:11:45.880Z,23.43
2019-02-25T20:14:16.498Z,20.57
2019-02-25T20:16:42.137Z,17.67
2019-02-25T20:19:29.579Z,17.67
2019-02-25T20:21:57.162Z,25.77
2019-02-25T20:24:25.632Z,27.80
2019-02-25T20:26:57.623Z,23.57
2019-02-25T20:29:22.033Z,26.10
2019-02-25T20:31:50.177Z,21.97
2019-02-25T20:34:20.466Z,26.17
2019-02-25T20:36:48.316Z,17.90
2019-02-25T20:39:17.047Z,26.27
2019-02-25T20:41:45.817Z,19.17
2019-02-25T20:44:13.797Z,25.17
2019-02-25T20:46:40.901Z,22.00
2019-02-25T20:49:08.121Z,29.80
2019-02-25T20:51:36.208Z,22.07
2019-02-25T20:54:03.430Z,21.37
2019-02-25T20:56:31.485Z,24.07
2019-02-25T20:59:06.177Z,21.17
2019-02-25T21:01:37.143Z,23.17
2019-02-25T21:04:02.977Z,24.13
2019-02-25T21:06:30.147Z,20.10
2019-02-25T21:09:06.586Z,25.20
2019-02-25T21:11:33.891Z,20.63
2019-02-25T21:14:00.991Z,21.87
2019-02-25T21:16:30.482Z,22.07
2019-02-25T21:18:57.435Z,25.33
2019-02-25T21:21:24.561Z,24.13
2019-02-25T21:23:51.735Z,25.43
2019-02-25T21:26:18.850Z,18.43
2019-02-25T21:28:46.059Z,27.23
2019-02-25T21:31:14.595Z,24.17
2019-02-25T21:33:44.872Z,23.90
2019-02-25T21:36:11.183Z,26.80
2019-02-25T21:38:38.250Z,26.90
2019-02-25T21:41:07.479Z,24.00
2019-02-25T21:43:34.506Z,24.93
2019-02-25T21:46:01.792Z,24.83
2019-02-25T21:48:30.250Z,26.97
2019-02-25T21:51:02.223Z,25.60
2019-02-25T21:53:27.317Z,24.87
2019-02-25T21:55:55.972Z,24.53
2019-02-25T21:58:25.350Z,24.60
2019-02-25T22:00:53.338Z,24.30
2019-02-25T22:03:21.809Z,24.73
2019-02-25T22:05:49.483Z,24.07
2019-02-25T22:08:20.099Z,26.53
2019-02-25T22:10:47.035Z,26.53
2019-02-25T22:13:15.942Z,28.67
2019-02-25T22:15:49.059Z,32.80
2019-02-25T22:18:16.261Z,27.53
2019-02-25T22:20:45.392Z,27.47
2019-02-25T22:23:12.337Z,27.30
2019-02-25T22:25:39.529Z,19.93
2019-02-25T22:28:07.846Z,32.20
2019-02-25T22:30:35.583Z,27.93
2019-02-25T22:33:04.704Z,30.37
2019-02-25T22:35:35.492Z,28.43
2019-02-25T22:38:02.728Z,26.13
2019-02-25T22:40:32.139Z,28.90
2019-02-25T22:42:59.054Z,28.23
2019-02-25T22:45:26.237Z,25.90
2019-02-25T22:47:53.332Z,31.27
2019-02-25T22:50:20.406Z,25.03
2019-02-25T22:52:51.638Z,18.93
2019-02-25T22:55:18.486Z,21.33
2019-02-25T22:57:50.511Z,22.43
2019-02-25T23:00:28.237Z,20.67
2019-02-25T23:02:56.778Z,24.30
2019-02-25T23:05:25.508Z,28.40
2019-02-25T23:07:54.568Z,31.87
2019-02-25T23:10:22.332Z,25.97
2019-02-25T23:12:50.755Z,27.93
2019-02-25T23:15:18.645Z,27.53
2019-02-25T23:17:47.078Z,25.00
2019-02-25T23:20:20.264Z,22.63
2019-02-25T23:22:47.327Z,23.57
2019-02-25T23:25:14.448Z,27.00
2019-02-25T23:27:41.528Z,25.47
2019-02-25T23:30:09.094Z,24.87
2019-02-25T23:32:39.422Z,26.80
2019-02-25T23:35:09.427Z,24.23
2019-02-25T23:37:36.575Z,22.07
2019-02-25T23:40:06.741Z,28.80
2019-02-25T23:42:35.597Z,25.90
2019-02-25T23:45:02.055Z,23.83
2019-02-25T23:47:31.150Z,27.53
2019-02-25T23:49:58.139Z,24.43
2019-02-25T23:52:25.695Z,27.53
2019-02-25T23:54:54.765Z,27.80
2019-02-25T23:57:23.848Z,27.33
2019-02-25T23:59:53.991Z,24.30
